Time;durP1;ratioP1;P1;durP2;ratioP2;P2;SDS_P1;SDS_P2;PMS_P1;PMS_P2;Temp;Humidity;BMP_temperature;BMP_pressure;BME280_temperature;BME280_humidity;BME280_pressure;Samples;Min_cycle;Max_cycle;Signal;HPM_P1;HPM_P2
2022/04/24 00:01:25;;;;;;;12.10;7.40;;;8.10;91.80;;;;;;5115786;28;20035;-27
2022/04/24 00:03:51;;;;;;;8.85;6.93;;;8.00;95.90;;;;;;5097506;28;20130;-27
2022/04/24 00:06:17;;;;;;;11.88;7.88;;;8.10;99.90;;;;;;5116625;27;20046;-27
2022/04/24 00:08:43;;;;;;;13.50;7.03;;;8.00;99.90;;;;;;5115415;27;20069;-28
2022/04/24 00:11:08;;;;;;;9.30;7.38;;;8.00;99.90;;;;;;5117279;27;20126;-27
2022/04/24 00:13:41;;;;;;;9.55;7.90;;;8.00;98.90;;;;;;5116102;28;20044;-27
2022/04/24 00:16:11;;;;;;;9.57;7.28;;;7.90;99.30;;;;;;5117041;27;20118;-27
2022/04/24 00:18:38;;;;;;;9.05;7.22;;;7.80;99.00;;;;;;5115020;28;20047;-27
2022/04/24 00:21:07;;;;;;;9.93;7.45;;;7.80;99.90;;;;;;5115363;28;20051;-27
2022/04/24 00:23:33;;;;;;;10.25;6.97;;;7.80;99.90;;;;;;5116038;28;20047;-27
2022/04/24 00:25:59;;;;;;;10.52;6.72;;;7.80;99.90;;;;;;5117992;27;20122;-27
2022/04/24 00:28:26;;;;;;;9.25;7.30;;;7.80;99.90;;;;;;5115044;28;20048;-28
2022/04/24 00:30:51;;;;;;;11.30;7.93;;;7.80;99.90;;;;;;5096626;28;20127;-27
2022/04/24 00:33:17;;;;;;;9.07;7.18;;;7.80;99.90;;;;;;5108340;27;20126;-27
2022/04/24 00:35:43;;;;;;;8.82;7.15;;;7.70;99.90;;;;;;5135478;27;20438;-27
2022/04/24 00:38:09;;;;;;;8.82;7.60;;;7.70;99.90;;;;;;5133706;27;20125;-27
2022/04/24 00:40:35;;;;;;;8.73;6.00;;;7.60;99.90;;;;;;5121432;27;20070;-27
2022/04/24 00:43:00;;;;;;;11.52;7.32;;;7.60;99.90;;;;;;5114870;28;20426;-27
2022/04/24 00:45:26;;;;;;;9.43;6.93;;;7.60;99.90;;;;;;5096499;28;20047;-27
2022/04/24 00:47:52;;;;;;;9.98;6.90;;;7.50;99.90;;;;;;5121457;27;20099;-27
2022/04/24 00:50:18;;;;;;;10.95;7.10;;;7.50;99.90;;;;;;5117236;27;20043;-27
2022/04/24 00:52:47;;;;;;;9.95;7.65;;;7.50;99.90;;;;;;5116963;27;20078;-27
2022/04/24 00:55:12;;;;;;;10.30;7.57;;;7.50;99.90;;;;;;5122120;27;20043;-27
2022/04/24 00:57:41;;;;;;;8.15;7.10;;;7.40;99.90;;;;;;5097732;27;20351;-27
2022/04/24 01:00:08;;;;;;;10.55;7.25;;;7.40;99.90;;;;;;5117943;27;20062;-27
2022/04/24 01:02:34;;;;;;;8.60;7.18;;;7.30;99.90;;;;;;5131472;27;20043;-27
2022/04/24 01:05:01;;;;;;;9.98;7.55;;;7.30;99.90;;;;;;5135155;27;20051;-27
2022/04/24 01:07:26;;;;;;;8.10;7.15;;;7.30;99.90;;;;;;5135079;27;20365;-27
2022/04/24 01:09:52;;;;;;;9.93;7.45;;;7.30;99.90;;;;;;5103316;28;20043;-27
2022/04/24 01:12:18;;;;;;;8.40;6.35;;;7.30;99.90;;;;;;5115017;28;20044;-27
2022/04/24 01:14:43;;;;;;;8.95;7.00;;;7.30;99.90;;;;;;5114367;28;20524;-27
2022/04/24 01:17:09;;;;;;;10.98;6.60;;;7.30;99.90;;;;;;5114240;28;20049;-27
2022/04/24 01:19:35;;;;;;;14.75;8.10;;;7.30;99.90;;;;;;5106121;27;20043;-27
2022/04/24 01:22:01;;;;;;;11.20;8.13;;;7.30;99.90;;;;;;5133073;27;20169;-27
2022/04/24 01:24:29;;;;;;;11.32;7.57;;;7.20;99.90;;;;;;5123686;27;20066;-27
2022/04/24 01:26:54;;;;;;;10.63;7.40;;;7.20;99.90;;;;;;5125888;27;20050;-27
2022/04/24 01:29:21;;;;;;;8.00;6.80;;;7.10;99.90;;;;;;5112327;28;20044;-27
2022/04/24 01:31:48;;;;;;;10.23;7.90;;;7.10;99.90;;;;;;5114039;28;20056;-27
2022/04/24 01:34:15;;;;;;;8.68;7.13;;;7.00;99.90;;;;;;5114138;28;20051;-27
2022/04/24 01:36:41;;;;;;;10.35;7.07;;;6.90;99.90;;;;;;5095975;28;20044;-27
2022/04/24 01:39:08;;;;;;;9.80;6.85;;;7.00;99.90;;;;;;5115901;28;20043;-27
2022/04/24 01:41:35;;;;;;;8.77;7.35;;;6.90;99.90;;;;;;5133486;28;20442;-27
2022/04/24 01:44:01;;;;;;;10.40;8.02;;;7.00;99.90;;;;;;5134578;28;20043;-27
2022/04/24 01:46:27;;;;;;;10.55;8.35;;;7.00;99.90;;;;;;5134521;28;20039;-27
2022/04/24 01:48:53;;;;;;;10.13;7.88;;;7.00;99.90;;;;;;5134543;28;20039;-27
2022/04/24 01:51:19;;;;;;;9.35;7.90;;;6.90;99.90;;;;;;5119741;28;20047;-27
2022/04/24 01:53:45;;;;;;;13.32;8.20;;;6.80;99.90;;;;;;5116089;28;20039;-27
2022/04/24 01:56:12;;;;;;;10.07;8.20;;;6.80;99.90;;;;;;5096443;28;20115;-26
2022/04/24 01:58:38;;;;;;;12.00;7.53;;;6.70;99.90;;;;;;5113932;28;20392;-26
2022/04/24 02:01:06;;;;;;;9.40;7.28;;;6.70;99.90;;;;;;5119027;28;20043;-26
2022/04/24 02:03:33;;;;;;;9.05;7.53;;;6.70;99.90;;;;;;5114162;28;20039;-26
2022/04/24 02:05:59;;;;;;;11.85;7.70;;;6.70;99.90;;;;;;5114093;28;20048;-27
2022/04/24 02:08:25;;;;;;;9.27;7.43;;;6.70;99.90;;;;;;5115735;28;20048;-27
2022/04/24 02:10:51;;;;;;;12.43;7.72;;;6.70;99.90;;;;;;5096114;28;20043;-26
2022/04/24 02:13:17;;;;;;;9.57;6.55;;;6.80;99.90;;;;;;5116429;28;20105;-27
2022/04/24 02:15:45;;;;;;;9.40;7.22;;;6.80;99.90;;;;;;5114041;28;20122;-26
2022/04/24 02:18:11;;;;;;;10.07;7.47;;;6.70;99.90;;;;;;5113717;28;20397;-26
2022/04/24 02:20:37;;;;;;;10.82;7.65;;;6.70;99.90;;;;;;5095773;28;20043;-26
2022/04/24 02:23:02;;;;;;;11.32;7.75;;;6.70;99.90;;;;;;5115662;28;20502;-26
2022/04/24 02:25:29;;;;;;;9.73;8.32;;;6.60;99.90;;;;;;5113334;28;20040;-26
2022/04/24 02:27:56;;;;;;;11.70;7.32;;;6.60;99.90;;;;;;5113605;28;20123;-27
2022/04/24 02:30:25;;;;;;;10.88;8.13;;;6.60;99.90;;;;;;5117805;28;20039;-27
2022/04/24 02:32:51;;;;;;;12.30;8.57;;;6.50;99.90;;;;;;5132595;28;20501;-26
2022/04/24 02:35:17;;;;;;;12.65;8.57;;;6.50;99.90;;;;;;5134105;28;20049;-27
2022/04/24 02:37:44;;;;;;;13.50;8.73;;;6.50;99.90;;;;;;5127842;28;20031;-26
2022/04/24 02:40:10;;;;;;;10.73;8.50;;;6.40;99.90;;;;;;5129015;28;20047;-28
2022/04/24 02:42:39;;;;;;;12.65;8.48;;;6.40;99.90;;;;;;5115099;28;20051;-27
2022/04/24 02:45:06;;;;;;;9.75;7.68;;;6.40;99.90;;;;;;5118306;27;20083;-27
2022/04/24 02:47:32;;;;;;;9.80;7.32;;;6.40;99.90;;;;;;5117754;28;20039;-27
2022/04/24 02:49:58;;;;;;;10.30;8.25;;;6.40;99.90;;;;;;5117089;28;20393;-27
2022/04/24 02:52:24;;;;;;;11.52;9.20;;;6.40;99.90;;;;;;5082959;27;20048;-27
2022/04/24 02:54:49;;;;;;;10.18;8.15;;;6.40;99.90;;;;;;5118186;27;20043;-27
2022/04/24 02:57:15;;;;;;;10.80;7.32;;;6.40;99.90;;;;;;5116881;28;20491;-26
2022/04/24 02:59:45;;;;;;;11.68;8.07;;;6.30;99.90;;;;;;5098476;27;20055;-27
2022/04/24 03:02:14;;;;;;;10.80;8.02;;;6.30;99.90;;;;;;5135903;27;20115;-27
2022/04/24 03:04:40;;;;;;;10.50;8.40;;;6.30;99.90;;;;;;5117655;27;20035;-27
2022/04/24 03:07:06;;;;;;;13.68;7.93;;;6.30;99.90;;;;;;5134972;27;20074;-27
2022/04/24 03:09:32;;;;;;;7.88;6.82;;;6.30;99.90;;;;;;5118025;27;20065;-29
2022/04/24 03:11:58;;;;;;;13.82;8.45;;;6.30;99.90;;;;;;5117469;28;20097;-29
2022/04/24 03:14:24;;;;;;;9.98;7.95;;;6.20;99.90;;;;;;5116575;28;20043;-28
2022/04/24 03:16:50;;;;;;;9.93;7.50;;;6.20;99.90;;;;;;5135832;27;20045;-28
2022/04/24 03:19:15;;;;;;;9.13;7.40;;;6.20;99.90;;;;;;5137030;27;20047;-29
2022/04/24 03:21:41;;;;;;;10.35;7.75;;;6.20;99.90;;;;;;5134628;27;20108;-28
2022/04/24 03:24:07;;;;;;;8.40;6.82;;;6.30;99.90;;;;;;5118325;27;20496;-28
2022/04/24 03:26:32;;;;;;;9.05;6.90;;;6.30;99.90;;;;;;5099523;28;20066;-28
2022/04/24 03:28:58;;;;;;;10.63;7.97;;;6.30;99.90;;;;;;5115873;27;20473;-28
2022/04/24 03:31:24;;;;;;;12.95;8.32;;;6.30;99.90;;;;;;5133650;27;20059;-28
2022/04/24 03:33:52;;;;;;;17.42;9.43;;;6.30;99.90;;;;;;5137695;27;20082;-28
2022/04/24 03:36:18;;;;;;;11.38;7.72;;;6.30;99.90;;;;;;5133543;27;20095;-29
2022/04/24 03:38:44;;;;;;;11.15;7.43;;;6.30;99.90;;;;;;5118744;27;20144;-28
2022/04/24 03:41:10;;;;;;;9.00;7.30;;;6.30;99.90;;;;;;5080975;28;20188;-28
2022/04/24 03:43:36;;;;;;;11.30;7.78;;;6.40;99.90;;;;;;5116314;28;20075;-28
2022/04/24 03:46:02;;;;;;;10.23;7.53;;;6.40;99.90;;;;;;5116092;28;20050;-27
2022/04/24 03:48:27;;;;;;;8.80;7.75;;;6.40;99.90;;;;;;5117675;27;20066;-28
2022/04/24 03:50:53;;;;;;;11.23;8.07;;;6.40;99.90;;;;;;5115912;28;20043;-28
2022/04/24 03:53:19;;;;;;;8.13;6.03;;;6.30;99.90;;;;;;5101823;28;20050;-28
2022/04/24 03:55:47;;;;;;;10.88;7.30;;;6.40;99.90;;;;;;5117759;27;20079;-28
2022/04/24 03:58:13;;;;;;;11.70;7.65;;;6.30;99.90;;;;;;5134494;27;20049;-28
2022/04/24 04:00:39;;;;;;;11.05;8.15;;;6.30;99.90;;;;;;5136618;27;20126;-28
2022/04/24 04:03:04;;;;;;;11.65;7.95;;;6.30;99.90;;;;;;5136239;27;20039;-28
2022/04/24 04:05:30;;;;;;;11.15;7.80;;;6.30;99.90;;;;;;5136503;27;20095;-28
2022/04/24 04:07:56;;;;;;;9.63;6.80;;;6.30;99.90;;;;;;5120306;27;20556;-28
2022/04/24 04:10:22;;;;;;;10.07;6.85;;;6.30;99.90;;;;;;5115759;28;20382;-28
2022/04/24 04:12:51;;;;;;;9.90;7.07;;;6.30;99.90;;;;;;5115535;28;20047;-28
2022/04/24 04:15:17;;;;;;;9.85;8.02;;;6.20;99.90;;;;;;5115469;28;20071;-28
2022/04/24 04:17:42;;;;;;;15.02;8.65;;;6.20;99.90;;;;;;5115333;28;20086;-28
2022/04/24 04:20:11;;;;;;;8.68;7.28;;;6.20;99.90;;;;;;5094645;28;20055;-28
2022/04/24 04:22:54;;;;;;;8.70;7.00;;;6.20;99.90;;;;;;5117178;27;20050;-28
2022/04/24 04:25:21;;;;;;;14.70;8.60;;;6.20;99.90;;;;;;5097787;28;20108;-27
2022/04/24 04:27:47;;;;;;;10.13;7.82;;;6.20;99.90;;;;;;5114991;28;20516;-28
2022/04/24 04:30:13;;;;;;;12.68;8.30;;;6.20;1.00;;;;;;5100237;27;20438;-28
2022/04/24 04:32:39;;;;;;;9.60;7.57;;;6.20;99.90;;;;;;5115709;28;20104;-28
2022/04/24 04:35:05;;;;;;;11.45;7.50;;;6.60;99.90;;;;;;5115151;28;20047;-28
2022/04/24 04:37:32;;;;;;;10.07;7.70;;;6.20;1.00;;;;;;5116890;27;20113;-28
2022/04/24 04:39:58;;;;;;;11.68;8.20;;;6.20;1.00;;;;;;5116081;27;20497;-28
2022/04/24 04:42:24;;;;;;;11.38;8.00;;;6.20;1.00;;;;;;5114896;28;20039;-28
2022/04/24 04:44:49;;;;;;;11.68;7.68;;;6.20;1.00;;;;;;5115252;28;20380;-28
2022/04/24 04:47:15;;;;;;;13.88;8.38;;;6.30;1.00;;;;;;5114927;28;20051;-28
2022/04/24 04:49:41;;;;;;;13.52;7.47;;;6.30;1.00;;;;;;5097400;27;20052;-28
2022/04/24 04:52:07;;;;;;;10.45;8.20;;;6.30;1.00;;;;;;5119079;27;20043;-27
2022/04/24 04:54:34;;;;;;;12.18;8.23;;;6.40;1.00;;;;;;5114754;28;20040;-28
2022/04/24 04:56:59;;;;;;;11.20;8.10;;;6.40;1.00;;;;;;5114648;28;20493;-28
2022/04/24 04:59:25;;;;;;;11.65;7.20;;;6.50;1.00;;;;;;5127469;27;20055;-28
2022/04/24 05:01:51;;;;;;;11.07;8.00;;;6.50;1.00;;;;;;5119074;27;20442;-27
2022/04/24 05:04:17;;;;;;;11.48;8.32;;;6.50;1.00;;;;;;5114540;28;20131;-29
2022/04/24 05:06:42;;;;;;;17.17;7.97;;;6.50;1.00;;;;;;5116178;27;20405;-28
2022/04/24 05:09:08;;;;;;;12.48;8.30;;;6.50;1.00;;;;;;5114557;28;20568;-28
2022/04/24 05:11:34;;;;;;;13.30;9.10;;;6.50;1.00;;;;;;5115532;27;20054;-29
2022/04/24 05:13:59;;;;;;;14.00;8.73;;;6.60;1.00;;;;;;5119331;27;20126;-28
2022/04/24 05:16:25;;;;;;;12.48;9.05;;;6.60;1.00;;;;;;5116508;27;20051;-28
2022/04/24 05:18:51;;;;;;;15.60;9.32;;;6.60;1.00;;;;;;5116727;27;20480;-28
2022/04/24 05:21:17;;;;;;;13.50;10.02;;;6.70;1.00;;;;;;5107748;27;21621;-28
2022/04/24 05:23:45;;;;;;;11.25;7.63;;;6.70;1.00;;;;;;5134579;27;20043;-28
2022/04/24 05:26:13;;;;;;;13.48;8.65;;;6.70;1.00;;;;;;5134823;27;20047;-28
2022/04/24 05:28:38;;;;;;;12.35;8.77;;;6.80;1.00;;;;;;5134803;27;20043;-28
2022/04/24 05:31:07;;;;;;;12.05;8.13;;;6.80;1.00;;;;;;5134455;27;20059;-27
2022/04/24 05:33:33;;;;;;;13.00;9.20;;;6.80;1.00;;;;;;5116076;28;20412;-28
2022/04/24 05:35:59;;;;;;;12.68;8.77;;;6.90;1.00;;;;;;5116419;28;20047;-29
2022/04/24 05:38:25;;;;;;;12.30;9.73;;;6.90;1.00;;;;;;5114706;28;20045;-28
2022/04/24 05:40:51;;;;;;;16.13;9.98;;;7.00;1.00;;;;;;5095982;28;20054;-28
2022/04/24 05:43:16;;;;;;;11.25;8.95;;;7.10;1.00;;;;;;5115352;28;20493;-28
2022/04/24 05:45:42;;;;;;;12.23;8.13;;;7.10;1.00;;;;;;5114848;28;20100;-28
2022/04/24 05:48:08;;;;;;;10.30;8.02;;;7.30;1.00;;;;;;5105615;28;20074;-28
2022/04/24 05:50:34;;;;;;;14.65;8.68;;;7.30;1.00;;;;;;5134527;28;20130;-28
2022/04/24 05:53:00;;;;;;;11.30;8.80;;;7.40;1.00;;;;;;5118455;28;20366;-28
2022/04/24 05:55:26;;;;;;;15.05;8.57;;;7.50;1.00;;;;;;5096056;28;20051;-28
2022/04/24 05:57:53;;;;;;;15.95;9.52;;;7.60;1.00;;;;;;5113763;28;20105;-28
2022/04/24 06:00:21;;;;;;;13.15;8.20;;;7.70;1.00;;;;;;5113945;28;20086;-28
2022/04/24 06:02:46;;;;;;;12.15;9.05;;;7.80;1.00;;;;;;5114727;28;20046;-28
2022/04/24 06:05:12;;;;;;;12.50;7.18;;;7.80;1.00;;;;;;5112668;28;20489;-28
2022/04/24 06:07:39;;;;;;;12.18;7.35;;;7.90;1.00;;;;;;5115586;28;20040;-28
2022/04/24 06:10:06;;;;;;;12.60;7.85;;;8.00;99.90;;;;;;5096700;28;20047;-28
2022/04/24 06:12:32;;;;;;;10.20;7.25;;;8.10;1.00;;;;;;5114577;28;20385;-29
2022/04/24 06:15:03;;;;;;;8.73;6.70;;;8.10;99.90;;;;;;5126747;28;20047;-28
2022/04/24 06:17:29;;;;;;;12.68;7.20;;;8.20;99.90;;;;;;5135679;27;20404;-28
2022/04/24 06:19:54;;;;;;;11.75;5.68;;;8.30;99.90;;;;;;5138253;27;20043;-28
2022/04/24 06:22:20;;;;;;;9.73;6.40;;;8.30;99.90;;;;;;5114959;27;20062;-28
2022/04/24 06:24:49;;;;;;;8.68;5.20;;;8.40;99.90;;;;;;5130363;27;20553;-28
2022/04/24 06:27:15;;;;;;;10.15;5.60;;;8.50;99.90;;;;;;5117615;28;20040;-28
2022/04/24 06:29:41;;;;;;;10.02;6.03;;;8.60;99.90;;;;;;5127928;27;20051;-28
2022/04/24 06:32:08;;;;;;;7.93;5.13;;;8.60;99.90;;;;;;5138145;27;20053;-28
2022/04/24 06:34:34;;;;;;;6.28;4.25;;;8.70;99.90;;;;;;5135747;27;20118;-28
2022/04/24 06:37:00;;;;;;;7.63;4.57;;;8.80;99.90;;;;;;5100419;28;20047;-28
2022/04/24 06:39:25;;;;;;;7.35;4.63;;;8.90;99.90;;;;;;5117368;28;20047;-28
2022/04/24 06:41:51;;;;;;;8.85;4.65;;;8.90;99.90;;;;;;5117242;28;20086;-28
2022/04/24 06:44:17;;;;;;;6.53;3.72;;;9.00;99.90;;;;;;5117306;28;20047;-28
2022/04/24 06:46:46;;;;;;;8.40;3.72;;;9.10;99.90;;;;;;5134204;27;20071;-28
2022/04/24 06:49:12;;;;;;;8.00;3.70;;;9.20;99.90;;;;;;5137764;27;20054;-28
2022/04/24 06:51:38;;;;;;;6.93;3.20;;;9.30;99.90;;;;;;5121897;27;20393;-28
2022/04/24 06:54:03;;;;;;;5.50;2.70;;;9.40;83.50;;;;;;5117131;28;20047;-28
2022/04/24 06:56:29;;;;;;;4.72;2.70;;;9.50;67.30;;;;;;5118324;27;20047;-28
2022/04/24 06:58:55;;;;;;;6.68;3.38;;;9.50;17.40;;;;;;5120072;27;20082;-28
2022/04/24 07:01:22;;;;;;;6.10;2.97;;;9.60;23.10;;;;;;5099136;28;20043;-28
2022/04/24 07:03:48;;;;;;;4.53;2.70;;;9.70;1.00;;;;;;5116873;28;20043;-28
2022/04/24 07:06:14;;;;;;;9.35;2.78;;;9.80;21.90;;;;;;5099817;28;20047;-28
2022/04/24 07:08:40;;;;;;;4.38;2.38;;;9.90;2.50;;;;;;5116839;28;20049;-29
2022/04/24 07:11:06;;;;;;;5.88;2.75;;;10.00;1.00;;;;;;5116794;28;20114;-28
2022/04/24 07:13:32;;;;;;;6.20;2.45;;;10.10;1.00;;;;;;5103860;27;20408;-28
2022/04/24 07:15:58;;;;;;;4.68;2.55;;;10.20;1.00;;;;;;5137133;27;20050;-28
2022/04/24 07:18:24;;;;;;;6.35;2.42;;;10.30;1.00;;;;;;5134945;27;20122;-28
2022/04/24 07:20:50;;;;;;;4.85;2.30;;;10.40;1.00;;;;;;5131178;27;20035;-28
2022/04/24 07:23:16;;;;;;;4.57;2.45;;;10.50;1.00;;;;;;5133497;27;20039;-28
2022/04/24 07:25:46;;;;;;;4.68;3.08;;;10.50;1.00;;;;;;5135779;27;20089;-29
2022/04/24 07:28:13;;;;;;;4.07;2.00;;;10.60;1.00;;;;;;5131784;27;20071;-28
2022/04/24 07:30:39;;;;;;;3.47;1.98;;;10.70;1.00;;;;;;5120903;27;20047;-27
2022/04/24 07:33:05;;;;;;;5.00;2.10;;;10.80;1.00;;;;;;5131616;27;20564;-27
2022/04/24 07:35:34;;;;;;;6.20;2.08;;;10.90;1.00;;;;;;5132875;27;20062;-27
2022/04/24 07:38:00;;;;;;;5.50;2.30;;;10.90;1.00;;;;;;5130424;27;20047;-28
2022/04/24 07:40:28;;;;;;;3.72;2.28;;;11.00;1.00;;;;;;5122997;27;20046;-28
2022/04/24 07:42:59;;;;;;;5.95;2.03;;;11.00;1.00;;;;;;5131301;27;20039;-28
2022/04/24 07:45:39;;;;;;;5.53;2.58;;;11.10;1.00;;;;;;5116236;28;20043;-28
2022/04/24 07:48:07;;;;;;;4.05;2.22;;;11.20;1.00;;;;;;5121194;27;20044;-28
2022/04/24 07:50:38;;;;;;;4.07;2.03;;;11.30;1.00;;;;;;5136581;27;20051;-27
2022/04/24 07:53:04;;;;;;;2.83;1.95;;;11.30;1.00;;;;;;5118094;27;20123;-27
2022/04/24 07:55:30;;;;;;;6.88;3.38;;;11.40;1.00;;;;;;5132867;27;20043;-27
2022/04/24 07:57:57;;;;;;;4.47;2.22;;;11.50;1.00;;;;;;5108602;27;20430;-27
2022/04/24 08:00:25;;;;;;;6.13;2.25;;;11.60;1.00;;;;;;5134142;27;20416;-27
2022/04/24 08:03:02;;;;;;;5.25;2.55;;;11.70;1.00;;;;;;5118583;27;20457;-28
2022/04/24 08:05:31;;;;;;;5.07;2.80;;;11.70;99.90;;;;;;5114846;27;20119;-27
2022/04/24 08:07:58;;;;;;;4.10;1.90;;;11.70;99.90;;;;;;5132397;27;20104;-27
2022/04/24 08:10:26;;;;;;;6.63;2.97;;;11.80;99.90;;;;;;5135499;27;20511;-28
2022/04/24 08:12:52;;;;;;;7.10;3.13;;;11.80;99.90;;;;;;5118880;27;20059;-27
2022/04/24 08:15:18;;;;;;;2.90;2.25;;;11.80;99.90;;;;;;5123619;27;20047;-27
2022/04/24 08:17:45;;;;;;;5.30;2.65;;;11.90;99.90;;;;;;5134457;27;20040;-27
2022/04/24 08:20:13;;;;;;;4.40;2.30;;;12.00;1.00;;;;;;5135647;27;20576;-27
2022/04/24 08:22:42;;;;;;;4.78;2.63;;;12.10;99.90;;;;;;5135826;27;20485;-28
2022/04/24 08:25:10;;;;;;;8.38;2.70;;;12.10;99.90;;;;;;5131544;27;20043;-27
2022/04/24 08:27:37;;;;;;;6.82;2.50;;;12.20;99.90;;;;;;5131052;27;20042;-29
2022/04/24 08:30:08;;;;;;;4.55;2.50;;;12.20;99.90;;;;;;5131917;27;20043;-27
2022/04/24 08:32:35;;;;;;;4.15;3.00;;;12.30;99.90;;;;;;5117289;27;20054;-28
2022/04/24 08:35:00;;;;;;;5.55;2.55;;;12.30;99.90;;;;;;5136546;27;20047;-28
2022/04/24 08:37:26;;;;;;;4.68;2.20;;;12.40;99.90;;;;;;5115627;27;20044;-28
2022/04/24 08:39:53;;;;;;;6.28;3.35;;;12.50;99.90;;;;;;5130676;27;20039;-28
2022/04/24 08:42:21;;;;;;;7.32;2.60;;;12.60;99.90;;;;;;5110052;27;20469;-28
2022/04/24 08:44:51;;;;;;;6.05;3.33;;;12.70;99.90;;;;;;5121043;27;20048;-27
2022/04/24 08:47:18;;;;;;;4.47;2.13;;;12.70;99.90;;;;;;5135422;27;20438;-28
2022/04/24 08:49:44;;;;;;;10.13;3.40;;;12.80;99.90;;;;;;5130707;27;20097;-29
2022/04/24 08:52:11;;;;;;;5.03;2.45;;;12.70;99.90;;;;;;5135480;27;20043;-28
2022/04/24 08:54:39;;;;;;;5.95;2.92;;;12.80;99.90;;;;;;5129388;27;20042;-28
2022/04/24 08:57:04;;;;;;;6.35;2.95;;;12.90;99.90;;;;;;5115646;27;20500;-28
2022/04/24 08:59:30;;;;;;;5.88;2.35;;;13.10;99.90;;;;;;5096942;27;20058;-28
2022/04/24 09:01:58;;;;;;;4.85;2.42;;;13.20;99.90;;;;;;5095572;28;20047;-28
2022/04/24 09:04:28;;;;;;;6.18;2.53;;;13.60;99.90;;;;;;5123164;27;20510;-28
2022/04/24 09:06:58;;;;;;;4.82;2.88;;;13.10;99.90;;;;;;5115710;27;20046;-28
2022/04/24 09:09:24;;;;;;;6.10;3.85;;;14.80;99.90;;;;;;5102561;28;20120;-28
2022/04/24 09:11:50;;;;;;;5.35;2.70;;;15.30;99.90;;;;;;5114549;28;20043;-28
2022/04/24 09:14:17;;;;;;;5.88;2.97;;;15.40;54.20;;;;;;5096758;27;20050;-29
2022/04/24 09:16:50;;;;;;;6.53;2.38;;;15.70;46.60;;;;;;5105273;27;20043;-28
2022/04/24 09:19:17;;;;;;;;;;;16.20;44.70;;;;;;5134741;27;20051;-28
2022/04/24 09:21:44;;;;;;;3.75;1.98;;;16.20;1.00;;;;;;5134553;27;19923;-28
2022/04/24 09:24:09;;;;;;;4.95;2.58;;;16.00;1.00;;;;;;5104011;27;20084;-28
2022/04/24 09:26:35;;;;;;;3.70;2.20;;;16.30;2.50;;;;;;5134533;27;20043;-28
2022/04/24 09:29:01;;;;;;;7.70;2.25;;;16.20;1.00;;;;;;5129172;27;20047;-28
2022/04/24 09:31:30;;;;;;;6.38;2.30;;;16.30;1.00;;;;;;5113895;28;20059;-28
2022/04/24 09:33:55;;;;;;;4.60;2.55;;;16.30;1.00;;;;;;5130609;27;20050;-29
2022/04/24 09:36:25;;;;;;;3.88;2.00;;;16.10;1.00;;;;;;5134075;27;20051;-28
2022/04/24 09:38:51;;;;;;;4.93;2.53;;;16.60;1.00;;;;;;5130092;27;20047;-28
2022/04/24 09:41:21;;;;;;;4.47;1.80;;;16.70;1.00;;;;;;5115478;28;20043;-28
2022/04/24 09:43:48;;;;;;;2.70;1.65;;;16.80;1.00;;;;;;5134794;28;20051;-28
2022/04/24 09:46:27;;;;;;;2.53;1.95;;;16.90;1.00;;;;;;5134466;28;20104;-28
2022/04/24 09:48:57;;;;;;;5.03;2.13;;;17.00;1.00;;;;;;5114356;28;20047;-28
2022/04/24 09:51:22;;;;;;;4.82;2.13;;;16.90;1.00;;;;;;5127172;27;20049;-28
2022/04/24 09:53:49;;;;;;;4.22;1.77;;;16.90;1.00;;;;;;5120079;27;20040;-28
2022/04/24 09:56:16;;;;;;;3.17;1.40;;;17.00;1.00;;;;;;5118778;27;20043;-28
2022/04/24 09:58:45;;;;;;;5.15;2.50;;;17.30;1.00;;;;;;5105234;27;20047;-29
2022/04/24 10:01:12;;;;;;;4.22;2.38;;;17.60;1.00;;;;;;5127619;27;20152;-28
2022/04/24 10:03:38;;;;;;;5.78;2.78;;;17.30;1.00;;;;;;5133211;27;20039;-30
2022/04/24 10:06:07;;;;;;;8.48;3.05;;;16.90;1.00;;;;;;5118817;28;20067;-28
2022/04/24 10:08:35;;;;;;;3.00;1.55;;;16.30;1.00;;;;;;5132075;27;20047;-29
2022/04/24 10:11:05;;;;;;;5.10;2.17;;;15.60;1.00;;;;;;5120095;27;20039;-28
2022/04/24 10:13:35;;;;;;;3.75;2.13;;;15.50;1.00;;;;;;5113075;27;20046;-28
2022/04/24 10:16:37;;;;;;;5.22;2.95;;;15.80;1.00;;;;;;5120962;27;20054;-29
2022/04/24 10:19:42;;;;;;;3.13;2.03;;;16.30;1.00;;;;;;5117765;27;20047;-28
2022/04/24 10:22:19;;;;;;;4.75;1.90;;;16.50;1.00;;;;;;5122072;27;20503;-28
2022/04/24 10:24:45;;;;;;;6.13;2.30;;;17.20;1.00;;;;;;5104418;27;20050;-28
2022/04/24 10:27:12;;;;;;;6.00;2.22;;;17.20;1.00;;;;;;5120225;27;20046;-29
2022/04/24 10:29:59;;;;;;;7.18;3.05;;;17.30;1.00;;;;;;5135447;27;20107;-29
2022/04/24 10:32:32;;;;;;;4.63;2.00;;;17.60;1.00;;;;;;5110601;28;20066;-28
2022/04/24 10:35:01;;;;;;;;;;;17.30;1.00;;;;;;5107549;28;20043;-29
2022/04/24 10:37:31;;;;;;;6.40;2.90;;;16.90;1.00;;;;;;5113979;28;19927;-28
2022/04/24 10:40:00;;;;;;;6.55;2.70;;;16.40;1.00;;;;;;5112883;28;20142;-29
2022/04/24 10:42:34;;;;;;;6.13;2.85;;;16.00;1.00;;;;;;5106067;28;20168;-28
2022/04/24 10:45:16;;;;;;;8.15;2.72;;;16.30;1.00;;;;;;5107866;27;20044;-29
2022/04/24 10:47:52;;;;;;;3.70;2.40;;;16.40;1.00;;;;;;5103497;27;20043;-29
2022/04/24 10:50:20;;;;;;;6.40;2.55;;;16.10;1.00;;;;;;5101909;28;20040;-28
2022/04/24 10:52:52;;;;;;;5.43;2.72;;;16.00;1.00;;;;;;5099490;28;20489;-28
2022/04/24 10:55:22;;;;;;;7.15;2.70;;;16.20;1.00;;;;;;5113732;28;20040;-29
2022/04/24 10:57:59;;;;;;;9.07;3.40;;;16.40;1.00;;;;;;5102861;28;20464;-29
2022/04/24 11:00:34;;;;;;;11.25;3.63;;;16.30;1.00;;;;;;5098117;28;20097;-28
2022/04/24 11:03:15;;;;;;;7.35;3.10;;;16.60;1.00;;;;;;5103406;28;20044;-28
2022/04/24 11:05:43;;;;;;;;;;;16.50;1.00;;;;;;5108557;28;20511;-28
2022/04/24 11:08:18;;;;;;;8.95;3.35;;;16.20;1.00;;;;;;5116053;28;19920;-28
2022/04/24 11:10:45;;;;;;;7.30;3.95;;;15.80;1.80;;;;;;5108951;28;20075;-28
2022/04/24 11:13:12;;;;;;;8.23;3.25;;;15.90;8.70;;;;;;5095586;28;20513;-28
2022/04/24 11:15:44;;;;;;;7.13;3.50;;;16.00;1.00;;;;;;5096299;28;20054;-29
2022/04/24 11:18:23;;;;;;;5.43;3.45;;;15.80;1.00;;;;;;5100529;28;20132;-28
2022/04/24 11:20:58;;;;;;;4.75;3.30;;;16.10;1.00;;;;;;5107165;28;20082;-28
2022/04/24 11:23:28;;;;;;;6.28;3.72;;;16.40;1.00;;;;;;5102890;28;20122;-29
2022/04/24 11:25:59;;;;;;;6.57;3.10;;;16.70;1.00;;;;;;5113215;28;20434;-29
2022/04/24 11:28:45;;;;;;;5.40;3.10;;;16.20;1.00;;;;;;5103352;28;20047;-28
2022/04/24 11:31:13;;;;;;;9.90;3.53;;;15.60;3.00;;;;;;5114394;27;20047;-28
2022/04/24 11:33:50;;;;;;;4.72;2.70;;;15.50;7.80;;;;;;5114957;27;20050;-28
2022/04/24 11:36:15;;;;;;;6.40;3.75;;;15.40;1.00;;;;;;5095840;27;20122;-28
2022/04/24 11:38:41;;;;;;;6.28;3.60;;;15.40;1.00;;;;;;5121901;27;20137;-29
2022/04/24 11:41:07;;;;;;;5.78;3.30;;;15.30;1.00;;;;;;5082276;27;20066;-28
2022/04/24 11:43:39;;;;;;;4.25;3.10;;;15.50;1.00;;;;;;5105181;27;20039;-29
2022/04/24 11:51:33;;;;;;;4.35;2.90;;;15.40;1.00;;;;;;5092004;27;20055;-28
2022/04/24 11:53:59;;;;;;;4.70;3.60;;;15.20;32.90;;;;;;5113471;27;20078;-28
2022/04/24 11:56:25;;;;;;;6.93;3.38;;;15.50;38.00;;;;;;5111823;27;20050;-28
2022/04/24 11:58:51;;;;;;;5.13;3.00;;;15.70;1.00;;;;;;5083127;27;20146;-29
2022/04/24 12:01:21;;;;;;;5.70;3.45;;;15.40;1.00;;;;;;5114985;27;20039;-28
2022/04/24 12:03:47;;;;;;;5.68;3.63;;;15.50;11.00;;;;;;5111712;27;20126;-29
2022/04/24 12:06:15;;;;;;;8.13;3.30;;;16.00;1.00;;;;;;5114422;27;20468;-29
2022/04/24 12:08:43;;;;;;;10.82;4.07;;;15.80;1.00;;;;;;5119517;27;20078;-28
2022/04/24 12:11:28;;;;;;;6.28;3.47;;;15.40;1.00;;;;;;5113135;27;20047;-29
2022/04/24 12:14:02;;;;;;;5.82;3.53;;;15.50;1.00;;;;;;5110333;27;20050;-30
2022/04/24 12:16:28;;;;;;;7.68;2.90;;;15.40;32.60;;;;;;5087800;27;20129;-30
2022/04/24 12:18:56;;;;;;;5.85;3.22;;;15.60;10.40;;;;;;5111353;27;20050;-30
2022/04/24 12:21:22;;;;;;;6.72;3.90;;;15.40;1.00;;;;;;5117535;27;20048;-28
2022/04/24 12:23:51;;;;;;;5.57;3.10;;;15.70;8.00;;;;;;5112260;27;20043;-28
2022/04/24 12:26:17;;;;;;;9.07;3.75;;;15.80;1.00;;;;;;5115361;27;20039;-29
2022/04/24 12:28:43;;;;;;;7.00;3.55;;;15.80;1.00;;;;;;5110430;27;21608;-29
2022/04/24 12:31:25;;;;;;;7.13;2.90;;;15.60;1.00;;;;;;5115920;27;20051;-29
2022/04/24 12:33:53;;;;;;;5.07;3.13;;;15.60;1.00;;;;;;5117464;27;20063;-29
2022/04/24 12:36:19;;;;;;;6.15;3.35;;;15.60;1.00;;;;;;5118260;27;20043;-28
2022/04/24 12:39:03;;;;;;;6.88;3.45;;;15.90;1.00;;;;;;5113942;27;20044;-29
2022/04/24 12:41:29;;;;;;;3.67;2.60;;;15.90;1.00;;;;;;5121254;27;20039;-29
2022/04/24 12:43:59;;;;;;;5.63;3.08;;;15.90;1.00;;;;;;5123743;27;20134;-29
2022/04/24 12:46:25;;;;;;;3.90;2.72;;;15.10;1.00;;;;;;5118164;27;20489;-28
2022/04/24 12:48:52;;;;;;;5.72;2.97;;;15.10;1.00;;;;;;5118677;27;20043;-29
2022/04/24 12:51:26;;;;;;;6.18;3.45;;;15.20;1.00;;;;;;5125772;27;20084;-28
2022/04/24 12:53:57;;;;;;;8.10;3.28;;;15.40;1.00;;;;;;5114316;27;20055;-28
2022/04/24 12:56:24;;;;;;;5.70;2.50;;;15.50;1.00;;;;;;5115611;27;20039;-28
2022/04/24 12:58:50;;;;;;;5.10;2.10;;;15.50;1.00;;;;;;5114573;27;20053;-28
2022/04/24 13:01:18;;;;;;;4.65;2.55;;;15.10;1.00;;;;;;5098738;28;20436;-28
2022/04/24 13:03:46;;;;;;;8.02;3.60;;;15.30;5.30;;;;;;5097183;27;20147;-28